sensor_id;sensor_type;location;lat;lon;timestamp;temperature;humidity
8856;DHT22;4464;50.882;4.730;2023-04-24T00:00:31;9.80;99.90
8856;DHT22;4464;50.882;4.730;2023-04-24T00:02:57;9.80;99.90
8856;DHT22;4464;50.882;4.730;2023-04-24T00:05:23;9.80;99.90
8856;DHT22;4464;50.882;4.730;2023-04-24T00:07:49;9.70;99.90
8856;DHT22;4464;50.882;4.730;2023-04-24T00:10:18;9.70;99.90
8856;DHT22;4464;50.882;4.730;2023-04-24T00:12:44;9.80;99.90
8856;DHT22;4464;50.882;4.730;2023-04-24T00:15:10;9.70;99.90
8856;DHT22;4464;50.882;4.730;2023-04-24T00:17:41;9.80;99.90
8856;DHT22;4464;50.882;4.730;2023-04-24T00:20:07;9.80;99.90
8856;DHT22;4464;50.882;4.730;2023-04-24T00:22:35;9.80;99.90
8856;DHT22;4464;50.882;4.730;2023-04-24T00:25:01;9.70;99.90
8856;DHT22;4464;50.882;4.730;2023-04-24T00:27:28;9.70;99.90
8856;DHT22;4464;50.882;4.730;2023-04-24T00:29:54;9.70;99.90
8856;DHT22;4464;50.882;4.730;2023-04-24T00:32:20;9.70;99.90
8856;DHT22;4464;50.882;4.730;2023-04-24T00:34:45;9.70;99.90
8856;DHT22;4464;50.882;4.730;2023-04-24T00:37:11;9.70;99.90
8856;DHT22;4464;50.882;4.730;2023-04-24T00:39:37;9.70;99.90
8856;DHT22;4464;50.882;4.730;2023-04-24T00:42:03;9.70;99.90
8856;DHT22;4464;50.882;4.730;2023-04-24T00:44:31;9.70;99.90
8856;DHT22;4464;50.882;4.730;2023-04-24T00:46:58;9.70;99.90
8856;DHT22;4464;50.882;4.730;2023-04-24T00:49:26;9.60;99.90
8856;DHT22;4464;50.882;4.730;2023-04-24T00:51:52;9.50;99.90
8856;DHT22;4464;50.882;4.730;2023-04-24T00:54:19;9.40;99.90
8856;DHT22;4464;50.882;4.730;2023-04-24T00:56:45;9.30;99.90
8856;DHT22;4464;50.882;4.730;2023-04-24T00:59:16;9.20;99.90
8856;DHT22;4464;50.882;4.730;2023-04-24T01:01:43;9.20;99.90
8856;DHT22;4464;50.882;4.730;2023-04-24T01:04:11;9.10;99.90
8856;DHT22;4464;50.882;4.730;2023-04-24T01:06:39;9.10;99.90
8856;DHT22;4464;50.882;4.730;2023-04-24T01:09:05;9.10;99.90
8856;DHT22;4464;50.882;4.730;2023-04-24T01:11:33;9.10;99.90
8856;DHT22;4464;50.882;4.730;2023-04-24T01:13:59;9.10;99.90
8856;DHT22;4464;50.882;4.730;2023-04-24T01:16:25;9.10;99.90
8856;DHT22;4464;50.882;4.730;2023-04-24T01:18:51;9.00;99.90
8856;DHT22;4464;50.882;4.730;2023-04-24T01:21:18;9.00;99.90
8856;DHT22;4464;50.882;4.730;2023-04-24T01:23:45;9.00;99.90
8856;DHT22;4464;50.882;4.730;2023-04-24T01:26:17;9.10;99.90
8856;DHT22;4464;50.882;4.730;2023-04-24T01:28:42;9.10;99.90
8856;DHT22;4464;50.882;4.730;2023-04-24T01:31:14;9.10;99.90
8856;DHT22;4464;50.882;4.730;2023-04-24T01:33:41;9.10;99.90
8856;DHT22;4464;50.882;4.730;2023-04-24T01:36:09;9.10;99.90
8856;DHT22;4464;50.882;4.730;2023-04-24T01:38:35;9.10;99.90
8856;DHT22;4464;50.882;4.730;2023-04-24T01:41:01;9.10;99.90
8856;DHT22;4464;50.882;4.730;2023-04-24T01:43:28;9.10;99.90
8856;DHT22;4464;50.882;4.730;2023-04-24T01:45:53;9.10;99.90
8856;DHT22;4464;50.882;4.730;2023-04-24T01:48:19;9.10;99.90
8856;DHT22;4464;50.882;4.730;2023-04-24T01:50:45;9.00;99.90
8856;DHT22;4464;50.882;4.730;2023-04-24T01:53:13;9.00;99.90
8856;DHT22;4464;50.882;4.730;2023-04-24T01:55:38;9.00;99.90
8856;DHT22;4464;50.882;4.730;2023-04-24T01:58:06;8.90;99.90
8856;DHT22;4464;50.882;4.730;2023-04-24T02:00:33;8.90;99.90
8856;DHT22;4464;50.882;4.730;2023-04-24T02:02:58;8.80;99.90
8856;DHT22;4464;50.882;4.730;2023-04-24T02:05:24;8.80;99.90
8856;DHT22;4464;50.882;4.730;2023-04-24T02:07:50;8.70;99.90
8856;DHT22;4464;50.882;4.730;2023-04-24T02:10:15;8.70;99.90
8856;DHT22;4464;50.882;4.730;2023-04-24T02:12:43;8.70;99.90
8856;DHT22;4464;50.882;4.730;2023-04-24T02:15:09;8.70;99.90
8856;DHT22;4464;50.882;4.730;2023-04-24T02:17:35;8.70;99.90
8856;DHT22;4464;50.882;4.730;2023-04-24T02:20:01;8.70;99.90
8856;DHT22;4464;50.882;4.730;2023-04-24T02:22:30;8.70;99.90
8856;DHT22;4464;50.882;4.730;2023-04-24T02:24:55;8.70;99.90
8856;DHT22;4464;50.882;4.730;2023-04-24T02:27:21;8.70;99.90
8856;DHT22;4464;50.882;4.730;2023-04-24T02:29:47;8.70;99.90
8856;DHT22;4464;50.882;4.730;2023-04-24T02:32:17;8.70;99.90
8856;DHT22;4464;50.882;4.730;2023-04-24T02:34:43;8.70;99.90
8856;DHT22;4464;50.882;4.730;2023-04-24T02:37:08;8.70;99.90
8856;DHT22;4464;50.882;4.730;2023-04-24T02:39:36;8.60;99.90
8856;DHT22;4464;50.882;4.730;2023-04-24T02:42:02;8.60;99.90
8856;DHT22;4464;50.882;4.730;2023-04-24T02:44:28;8.60;99.90
8856;DHT22;4464;50.882;4.730;2023-04-24T02:46:53;8.60;99.90
8856;DHT22;4464;50.882;4.730;2023-04-24T02:49:19;8.60;99.90
8856;DHT22;4464;50.882;4.730;2023-04-24T02:51:47;8.60;99.90
8856;DHT22;4464;50.882;4.730;2023-04-24T02:54:13;8.60;99.90
8856;DHT22;4464;50.882;4.730;2023-04-24T02:56:41;8.60;99.90
8856;DHT22;4464;50.882;4.730;2023-04-24T02:59:09;8.60;99.90
8856;DHT22;4464;50.882;4.730;2023-04-24T03:01:36;8.60;99.90
8856;DHT22;4464;50.882;4.730;2023-04-24T03:04:01;8.50;99.90
8856;DHT22;4464;50.882;4.730;2023-04-24T03:06:27;8.50;99.90
8856;DHT22;4464;50.882;4.730;2023-04-24T03:08:53;8.50;99.90
8856;DHT22;4464;50.882;4.730;2023-04-24T03:11:21;8.50;99.90
8856;DHT22;4464;50.882;4.730;2023-04-24T03:13:47;8.50;99.90
8856;DHT22;4464;50.882;4.730;2023-04-24T03:16:13;8.50;99.90
8856;DHT22;4464;50.882;4.730;2023-04-24T03:18:43;8.50;99.90
8856;DHT22;4464;50.882;4.730;2023-04-24T03:21:09;8.50;99.90
8856;DHT22;4464;50.882;4.730;2023-04-24T03:23:34;8.40;99.90
8856;DHT22;4464;50.882;4.730;2023-04-24T03:26:00;8.50;99.90
8856;DHT22;4464;50.882;4.730;2023-04-24T03:28:28;8.40;99.90
8856;DHT22;4464;50.882;4.730;2023-04-24T03:30:53;8.40;99.90
8856;DHT22;4464;50.882;4.730;2023-04-24T03:33:22;8.40;99.90
8856;DHT22;4464;50.882;4.730;2023-04-24T03:35:47;8.40;99.90
8856;DHT22;4464;50.882;4.730;2023-04-24T03:38:13;8.40;99.90
8856;DHT22;4464;50.882;4.730;2023-04-24T03:40:41;8.40;99.90
8856;DHT22;4464;50.882;4.730;2023-04-24T03:43:07;8.40;99.90
8856;DHT22;4464;50.882;4.730;2023-04-24T03:45:32;8.40;99.90
8856;DHT22;4464;50.882;4.730;2023-04-24T03:47:58;8.40;99.90
8856;DHT22;4464;50.882;4.730;2023-04-24T03:50:24;8.40;99.90
8856;DHT22;4464;50.882;4.730;2023-04-24T03:52:54;8.40;99.90
8856;DHT22;4464;50.882;4.730;2023-04-24T03:55:20;8.30;99.90
8856;DHT22;4464;50.882;4.730;2023-04-24T03:57:47;8.40;99.90
8856;DHT22;4464;50.882;4.730;2023-04-24T04:00:15;8.30;99.90
8856;DHT22;4464;50.882;4.730;2023-04-24T04:02:44;8.40;99.90
8856;DHT22;4464;50.882;4.730;2023-04-24T04:05:12;8.40;99.90
8856;DHT22;4464;50.882;4.730;2023-04-24T04:07:37;8.40;99.90
8856;DHT22;4464;50.882;4.730;2023-04-24T04:10:03;8.40;99.90
8856;DHT22;4464;50.882;4.730;2023-04-24T04:12:29;8.40;99.90
8856;DHT22;4464;50.882;4.730;2023-04-24T04:14:58;8.40;99.90
8856;DHT22;4464;50.882;4.730;2023-04-24T04:17:23;8.40;99.90
8856;DHT22;4464;50.882;4.730;2023-04-24T04:19:49;8.40;99.90
8856;DHT22;4464;50.882;4.730;2023-04-24T04:22:16;8.40;99.90
8856;DHT22;4464;50.882;4.730;2023-04-24T04:24:41;8.40;99.90
8856;DHT22;4464;50.882;4.730;2023-04-24T04:27:08;8.50;99.90
8856;DHT22;4464;50.882;4.730;2023-04-24T04:29:34;8.40;99.90
8856;DHT22;4464;50.882;4.730;2023-04-24T04:32:01;8.50;99.90
8856;DHT22;4464;50.882;4.730;2023-04-24T04:34:32;8.50;99.90
8856;DHT22;4464;50.882;4.730;2023-04-24T04:36:58;8.50;99.90
8856;DHT22;4464;50.882;4.730;2023-04-24T04:39:29;8.50;99.90
8856;DHT22;4464;50.882;4.730;2023-04-24T04:41:58;8.40;99.90
8856;DHT22;4464;50.882;4.730;2023-04-24T04:44:23;8.50;99.90
8856;DHT22;4464;50.882;4.730;2023-04-24T04:46:52;8.50;99.90
8856;DHT22;4464;50.882;4.730;2023-04-24T04:49:18;8.50;99.90
8856;DHT22;4464;50.882;4.730;2023-04-24T04:51:46;8.50;99.90
8856;DHT22;4464;50.882;4.730;2023-04-24T04:54:12;8.50;99.90
8856;DHT22;4464;50.882;4.730;2023-04-24T04:56:40;8.60;99.90
8856;DHT22;4464;50.882;4.730;2023-04-24T04:59:06;8.50;99.90
8856;DHT22;4464;50.882;4.730;2023-04-24T05:01:32;8.50;99.90
8856;DHT22;4464;50.882;4.730;2023-04-24T05:04:00;8.50;99.90
8856;DHT22;4464;50.882;4.730;2023-04-24T05:06:26;8.50;99.90
8856;DHT22;4464;50.882;4.730;2023-04-24T05:08:51;8.50;99.90
8856;DHT22;4464;50.882;4.730;2023-04-24T05:11:21;8.50;99.90
8856;DHT22;4464;50.882;4.730;2023-04-24T05:13:49;8.50;99.90
8856;DHT22;4464;50.882;4.730;2023-04-24T05:16:14;8.40;99.90
8856;DHT22;4464;50.882;4.730;2023-04-24T05:18:40;8.50;99.90
8856;DHT22;4464;50.882;4.730;2023-04-24T05:21:08;8.50;99.90
8856;DHT22;4464;50.882;4.730;2023-04-24T05:23:34;8.50;99.90
8856;DHT22;4464;50.882;4.730;2023-04-24T05:25:59;8.40;99.90
8856;DHT22;4464;50.882;4.730;2023-04-24T05:28:30;8.40;99.90
8856;DHT22;4464;50.882;4.730;2023-04-24T05:30:55;8.40;99.90
8856;DHT22;4464;50.882;4.730;2023-04-24T05:33:24;8.40;99.90
8856;DHT22;4464;50.882;4.730;2023-04-24T05:35:51;8.40;99.90
8856;DHT22;4464;50.882;4.730;2023-04-24T05:38:16;8.40;99.90
8856;DHT22;4464;50.882;4.730;2023-04-24T05:40:47;8.40;99.90
8856;DHT22;4464;50.882;4.730;2023-04-24T05:43:13;8.40;99.90
8856;DHT22;4464;50.882;4.730;2023-04-24T05:45:39;8.40;99.90
8856;DHT22;4464;50.882;4.730;2023-04-24T05:48:09;8.30;99.90
8856;DHT22;4464;50.882;4.730;2023-04-24T05:50:35;8.30;99.90
8856;DHT22;4464;50.882;4.730;2023-04-24T05:53:01;8.30;99.90
8856;DHT22;4464;50.882;4.730;2023-04-24T05:55:30;8.30;99.90
8856;DHT22;4464;50.882;4.730;2023-04-24T05:57:56;8.30;99.90
8856;DHT22;4464;50.882;4.730;2023-04-24T06:00:25;8.30;99.90
8856;DHT22;4464;50.882;4.730;2023-04-24T06:02:51;8.20;99.90
8856;DHT22;4464;50.882;4.730;2023-04-24T06:05:18;8.20;99.90
8856;DHT22;4464;50.882;4.730;2023-04-24T06:07:44;8.20;99.90
8856;DHT22;4464;50.882;4.730;2023-04-24T06:10:10;8.20;99.90
8856;DHT22;4464;50.882;4.730;2023-04-24T06:12:36;8.20;99.90
8856;DHT22;4464;50.882;4.730;2023-04-24T06:15:05;8.20;99.90
8856;DHT22;4464;50.882;4.730;2023-04-24T06:17:33;8.20;99.90
8856;DHT22;4464;50.882;4.730;2023-04-24T06:19:59;8.30;99.90
8856;DHT22;4464;50.882;4.730;2023-04-24T06:22:24;8.40;99.90
8856;DHT22;4464;50.882;4.730;2023-04-24T06:24:50;8.40;99.90
8856;DHT22;4464;50.882;4.730;2023-04-24T06:27:18;8.30;99.90
8856;DHT22;4464;50.882;4.730;2023-04-24T06:29:46;8.30;99.90
8856;DHT22;4464;50.882;4.730;2023-04-24T06:32:22;8.30;99.90
8856;DHT22;4464;50.882;4.730;2023-04-24T06:34:48;8.30;99.90
8856;DHT22;4464;50.882;4.730;2023-04-24T06:37:17;8.30;99.90
8856;DHT22;4464;50.882;4.730;2023-04-24T06:39:43;8.30;99.90
8856;DHT22;4464;50.882;4.730;2023-04-24T06:42:11;8.30;99.90
8856;DHT22;4464;50.882;4.730;2023-04-24T06:44:36;8.30;99.90
8856;DHT22;4464;50.882;4.730;2023-04-24T06:47:09;8.30;99.90
8856;DHT22;4464;50.882;4.730;2023-04-24T06:49:36;8.40;99.90
8856;DHT22;4464;50.882;4.730;2023-04-24T06:52:02;8.40;99.90
8856;DHT22;4464;50.882;4.730;2023-04-24T06:54:29;8.40;99.90
8856;DHT22;4464;50.882;4.730;2023-04-24T06:56:54;8.40;99.90
8856;DHT22;4464;50.882;4.730;2023-04-24T06:59:20;8.40;99.90
8856;DHT22;4464;50.882;4.730;2023-04-24T07:01:46;8.40;99.90
8856;DHT22;4464;50.882;4.730;2023-04-24T07:04:12;8.40;99.90
8856;DHT22;4464;50.882;4.730;2023-04-24T07:06:38;8.40;99.90
8856;DHT22;4464;50.882;4.730;2023-04-24T07:09:04;8.40;99.90
8856;DHT22;4464;50.882;4.730;2023-04-24T07:11:30;8.40;99.90
8856;DHT22;4464;50.882;4.730;2023-04-24T07:13:56;8.50;99.90
8856;DHT22;4464;50.882;4.730;2023-04-24T07:16:22;8.50;99.90
8856;DHT22;4464;50.882;4.730;2023-04-24T07:18:48;8.50;99.90
8856;DHT22;4464;50.882;4.730;2023-04-24T07:21:14;8.50;99.90
8856;DHT22;4464;50.882;4.730;2023-04-24T07:23:39;8.60;99.90
8856;DHT22;4464;50.882;4.730;2023-04-24T07:26:07;8.70;99.90
8856;DHT22;4464;50.882;4.730;2023-04-24T07:28:34;8.70;99.90
8856;DHT22;4464;50.882;4.730;2023-04-24T07:31:00;8.70;99.90
8856;DHT22;4464;50.882;4.730;2023-04-24T07:33:26;8.70;99.90
8856;DHT22;4464;50.882;4.730;2023-04-24T07:35:52;8.70;99.90
8856;DHT22;4464;50.882;4.730;2023-04-24T07:38:18;8.70;99.90
8856;DHT22;4464;50.882;4.730;2023-04-24T07:40:50;8.70;99.90
8856;DHT22;4464;50.882;4.730;2023-04-24T07:43:16;8.70;99.90
8856;DHT22;4464;50.882;4.730;2023-04-24T07:45:41;8.70;99.90
8856;DHT22;4464;50.882;4.730;2023-04-24T07:48:10;8.60;99.90
8856;DHT22;4464;50.882;4.730;2023-04-24T07:50:38;8.70;99.90
8856;DHT22;4464;50.882;4.730;2023-04-24T07:53:06;8.70;99.90
8856;DHT22;4464;50.882;4.730;2023-04-24T07:55:34;8.60;99.90
8856;DHT22;4464;50.882;4.730;2023-04-24T07:57:59;8.70;99.90
8856;DHT22;4464;50.882;4.730;2023-04-24T08:00:27;8.70;99.90
8856;DHT22;4464;50.882;4.730;2023-04-24T08:02:53;8.70;99.90
8856;DHT22;4464;50.882;4.730;2023-04-24T08:05:19;8.70;99.90
8856;DHT22;4464;50.882;4.730;2023-04-24T08:07:46;8.70;99.90
8856;DHT22;4464;50.882;4.730;2023-04-24T08:10:14;8.70;99.90
8856;DHT22;4464;50.882;4.730;2023-04-24T08:12:40;8.80;99.90
8856;DHT22;4464;50.882;4.730;2023-04-24T08:15:06;8.90;99.90
8856;DHT22;4464;50.882;4.730;2023-04-24T08:17:34;9.10;99.90
8856;DHT22;4464;50.882;4.730;2023-04-24T08:20:01;9.30;99.90
8856;DHT22;4464;50.882;4.730;2023-04-24T08:22:29;9.50;99.90
8856;DHT22;4464;50.882;4.730;2023-04-24T08:24:55;9.40;99.90
8856;DHT22;4464;50.882;4.730;2023-04-24T08:27:23;9.60;99.90
8856;DHT22;4464;50.882;4.730;2023-04-24T08:29:49;9.50;99.90
8856;DHT22;4464;50.882;4.730;2023-04-24T08:32:15;9.50;99.90
8856;DHT22;4464;50.882;4.730;2023-04-24T08:34:41;9.40;99.90
8856;DHT22;4464;50.882;4.730;2023-04-24T08:37:07;9.30;99.90
8856;DHT22;4464;50.882;4.730;2023-04-24T08:39:34;9.30;99.90
8856;DHT22;4464;50.882;4.730;2023-04-24T08:42:01;9.10;99.90
8856;DHT22;4464;50.882;4.730;2023-04-24T08:44:33;9.10;99.90
8856;DHT22;4464;50.882;4.730;2023-04-24T08:47:01;9.00;99.90
8856;DHT22;4464;50.882;4.730;2023-04-24T08:49:28;9.10;99.90
8856;DHT22;4464;50.882;4.730;2023-04-24T08:51:54;9.30;99.90
8856;DHT22;4464;50.882;4.730;2023-04-24T08:54:20;9.50;99.90
8856;DHT22;4464;50.882;4.730;2023-04-24T08:56:53;9.50;99.90
8856;DHT22;4464;50.882;4.730;2023-04-24T08:59:19;9.60;99.90
8856;DHT22;4464;50.882;4.730;2023-04-24T09:01:48;9.60;99.90
8856;DHT22;4464;50.882;4.730;2023-04-24T09:04:15;10.00;99.90
8856;DHT22;4464;50.882;4.730;2023-04-24T09:06:45;10.20;99.90
8856;DHT22;4464;50.882;4.730;2023-04-24T09:09:11;10.00;99.90
8856;DHT22;4464;50.882;4.730;2023-04-24T09:11:40;9.90;99.90
8856;DHT22;4464;50.882;4.730;2023-04-24T09:14:06;9.80;99.90
8856;DHT22;4464;50.882;4.730;2023-04-24T09:16:37;9.80;99.90
8856;DHT22;4464;50.882;4.730;2023-04-24T09:19:07;9.90;99.90
8856;DHT22;4464;50.882;4.730;2023-04-24T09:21:34;10.00;99.90
8856;DHT22;4464;50.882;4.730;2023-04-24T09:24:07;10.00;99.90
8856;DHT22;4464;50.882;4.730;2023-04-24T09:26:36;10.10;99.90
8856;DHT22;4464;50.882;4.730;2023-04-24T09:29:03;10.20;99.90
8856;DHT22;4464;50.882;4.730;2023-04-24T09:31:32;10.80;99.90
8856;DHT22;4464;50.882;4.730;2023-04-24T09:33:59;11.30;99.90
8856;DHT22;4464;50.882;4.730;2023-04-24T09:36:31;11.70;99.90
8856;DHT22;4464;50.882;4.730;2023-04-24T09:39:10;12.60;99.90
8856;DHT22;4464;50.882;4.730;2023-04-24T09:41:57;13.10;99.90
8856;DHT22;4464;50.882;4.730;2023-04-24T09:44:27;12.40;99.90
8856;DHT22;4464;50.882;4.730;2023-04-24T09:46:57;11.80;99.90
8856;DHT22;4464;50.882;4.730;2023-04-24T09:49:29;11.50;99.90
8856;DHT22;4464;50.882;4.730;2023-04-24T09:52:10;11.30;99.90
8856;DHT22;4464;50.882;4.730;2023-04-24T09:54:39;11.10;99.90
8856;DHT22;4464;50.882;4.730;2023-04-24T09:57:09;10.90;99.90
8856;DHT22;4464;50.882;4.730;2023-04-24T09:59:35;10.90;99.90
8856;DHT22;4464;50.882;4.730;2023-04-24T10:02:21;11.00;99.90
8856;DHT22;4464;50.882;4.730;2023-04-24T10:04:58;11.10;99.90
8856;DHT22;4464;50.882;4.730;2023-04-24T10:07:28;12.50;99.90
8856;DHT22;4464;50.882;4.730;2023-04-24T10:09:54;13.60;99.90
8856;DHT22;4464;50.882;4.730;2023-04-24T10:12:21;14.20;99.90
8856;DHT22;4464;50.882;4.730;2023-04-24T10:14:48;13.50;99.90
8856;DHT22;4464;50.882;4.730;2023-04-24T10:17:14;12.90;99.90
8856;DHT22;4464;50.882;4.730;2023-04-24T10:19:43;12.40;99.90
8856;DHT22;4464;50.882;4.730;2023-04-24T10:22:09;12.10;99.90
8856;DHT22;4464;50.882;4.730;2023-04-24T10:24:35;11.80;99.90
8856;DHT22;4464;50.882;4.730;2023-04-24T10:27:04;11.70;99.90
8856;DHT22;4464;50.882;4.730;2023-04-24T10:29:31;11.60;99.90
8856;DHT22;4464;50.882;4.730;2023-04-24T10:32:02;11.60;99.90
8856;DHT22;4464;50.882;4.730;2023-04-24T10:34:29;11.90;99.90
8856;DHT22;4464;50.882;4.730;2023-04-24T10:36:57;12.60;99.90
8856;DHT22;4464;50.882;4.730;2023-04-24T10:39:23;13.10;99.90
8856;DHT22;4464;50.882;4.730;2023-04-24T10:41:51;14.30;99.90
8856;DHT22;4464;50.882;4.730;2023-04-24T10:44:17;13.80;99.90
8856;DHT22;4464;50.882;4.730;2023-04-24T10:46:44;13.20;99.90
8856;DHT22;4464;50.882;4.730;2023-04-24T10:49:11;12.60;99.90
8856;DHT22;4464;50.882;4.730;2023-04-24T10:52:03;12.50;99.90
8856;DHT22;4464;50.882;4.730;2023-04-24T10:54:45;12.50;99.90
8856;DHT22;4464;50.882;4.730;2023-04-24T10:59:43;12.60;99.90
8856;DHT22;4464;50.882;4.730;2023-04-24T11:02:13;12.40;99.90
8856;DHT22;4464;50.882;4.730;2023-04-24T11:04:39;12.30;99.90
8856;DHT22;4464;50.882;4.730;2023-04-24T11:07:05;12.00;99.90
8856;DHT22;4464;50.882;4.730;2023-04-24T11:09:32;11.80;99.90
8856;DHT22;4464;50.882;4.730;2023-04-24T11:12:08;11.80;99.90
8856;DHT22;4464;50.882;4.730;2023-04-24T11:20:01;11.70;99.90
8856;DHT22;4464;50.882;4.730;2023-04-24T11:22:29;11.70;99.90
8856;DHT22;4464;50.882;4.730;2023-04-24T11:24:59;12.10;99.90
8856;DHT22;4464;50.882;4.730;2023-04-24T11:27:39;12.00;99.90
8856;DHT22;4464;50.882;4.730;2023-04-24T11:30:08;12.20;99.90
8856;DHT22;4464;50.882;4.730;2023-04-24T11:35:22;12.30;99.90
8856;DHT22;4464;50.882;4.730;2023-04-24T11:37:53;11.90;99.90
8856;DHT22;4464;50.882;4.730;2023-04-24T11:40:21;11.90;99.90
8856;DHT22;4464;50.882;4.730;2023-04-24T11:42:52;11.90;99.90
8856;DHT22;4464;50.882;4.730;2023-04-24T11:45:26;12.00;99.90
8856;DHT22;4464;50.882;4.730;2023-04-24T11:47:54;12.10;99.90
8856;DHT22;4464;50.882;4.730;2023-04-24T11:50:23;12.10;99.90
8856;DHT22;4464;50.882;4.730;2023-04-24T11:52:52;12.00;99.90
8856;DHT22;4464;50.882;4.730;2023-04-24T11:57:45;12.60;99.90
8856;DHT22;4464;50.882;4.730;2023-04-24T12:00:19;13.00;99.90
8856;DHT22;4464;50.882;4.730;2023-04-24T12:02:46;13.10;99.90
8856;DHT22;4464;50.882;4.730;2023-04-24T12:05:29;13.00;99.90
8856;DHT22;4464;50.882;4.730;2023-04-24T12:07:57;12.70;99.90
8856;DHT22;4464;50.882;4.730;2023-04-24T12:10:24;13.20;99.90
8856;DHT22;4464;50.882;4.730;2023-04-24T12:12:56;13.60;99.90
8856;DHT22;4464;50.882;4.730;2023-04-24T12:15:28;13.50;99.90
8856;DHT22;4464;50.882;4.730;2023-04-24T12:17:56;13.20;99.90
8856;DHT22;4464;50.882;4.730;2023-04-24T12:20:28;13.10;99.90
8856;DHT22;4464;50.882;4.730;2023-04-24T12:22:57;13.10;99.90
8856;DHT22;4464;50.882;4.730;2023-04-24T12:25:28;14.40;99.90
8856;DHT22;4464;50.882;4.730;2023-04-24T12:28:08;14.30;99.90
8856;DHT22;4464;50.882;4.730;2023-04-24T12:30:44;13.50;99.90
8856;DHT22;4464;50.882;4.730;2023-04-24T12:33:10;13.60;99.90
8856;DHT22;4464;50.882;4.730;2023-04-24T12:35:42;13.50;99.90
8856;DHT22;4464;50.882;4.730;2023-04-24T12:38:10;13.40;99.90
8856;DHT22;4464;50.882;4.730;2023-04-24T12:40:36;14.70;99.90
8856;DHT22;4464;50.882;4.730;2023-04-24T12:43:18;16.40;99.90
8856;DHT22;4464;50.882;4.730;2023-04-24T12:45:45;17.90;99.90
8856;DHT22;4464;50.882;4.730;2023-04-24T12:48:11;18.80;98.40
8856;DHT22;4464;50.882;4.730;2023-04-24T12:50:38;18.60;96.40
8856;DHT22;4464;50.882;4.730;2023-04-24T12:53:03;17.60;96.50
8856;DHT22;4464;50.882;4.730;2023-04-24T12:55:31;16.80;96.40
8856;DHT22;4464;50.882;4.730;2023-04-24T12:57:57;16.20;97.50
8856;DHT22;4464;50.882;4.730;2023-04-24T13:00:23;16.10;97.50
8856;DHT22;4464;50.882;4.730;2023-04-24T13:02:49;17.10;97.20
8856;DHT22;4464;50.882;4.730;2023-04-24T13:05:15;17.40;96.70
8856;DHT22;4464;50.882;4.730;2023-04-24T13:07:41;17.80;96.90
8856;DHT22;4464;50.882;4.730;2023-04-24T13:10:07;18.20;96.90
8856;DHT22;4464;50.882;4.730;2023-04-24T13:12:33;18.40;96.70
8856;DHT22;4464;50.882;4.730;2023-04-24T13:15:01;18.50;95.60
8856;DHT22;4464;50.882;4.730;2023-04-24T13:17:27;17.70;96.10
8856;DHT22;4464;50.882;4.730;2023-04-24T13:19:55;16.10;97.80
8856;DHT22;4464;50.882;4.730;2023-04-24T13:22:21;15.50;99.30
8856;DHT22;4464;50.882;4.730;2023-04-24T13:24:49;14.90;99.50
8856;DHT22;4464;50.882;4.730;2023-04-24T13:27:18;14.30;99.90
8856;DHT22;4464;50.882;4.730;2023-04-24T13:29:44;14.00;99.90
8856;DHT22;4464;50.882;4.730;2023-04-24T13:32:10;14.20;99.90
8856;DHT22;4464;50.882;4.730;2023-04-24T13:34:35;14.40;99.90
8856;DHT22;4464;50.882;4.730;2023-04-24T13:37:03;14.80;99.90
8856;DHT22;4464;50.882;4.730;2023-04-24T13:39:29;15.00;99.50
8856;DHT22;4464;50.882;4.730;2023-04-24T13:41:55;15.40;99.30
8856;DHT22;4464;50.882;4.730;2023-04-24T13:44:22;15.90;98.70
8856;DHT22;4464;50.882;4.730;2023-04-24T13:46:50;16.40;98.10
8856;DHT22;4464;50.882;4.730;2023-04-24T13:49:17;17.10;96.30
8856;DHT22;4464;50.882;4.730;2023-04-24T13:51:46;17.50;96.30
8856;DHT22;4464;50.882;4.730;2023-04-24T13:54:12;18.10;95.10
8856;DHT22;4464;50.882;4.730;2023-04-24T13:56:39;17.90;95.20
8856;DHT22;4464;50.882;4.730;2023-04-24T13:59:07;17.80;95.40
8856;DHT22;4464;50.882;4.730;2023-04-24T14:01:36;18.30;96.30
8856;DHT22;4464;50.882;4.730;2023-04-24T14:04:01;18.10;95.40
8856;DHT22;4464;50.882;4.730;2023-04-24T14:06:27;17.70;95.90
8856;DHT22;4464;50.882;4.730;2023-04-24T14:08:53;17.60;95.90
8856;DHT22;4464;50.882;4.730;2023-04-24T14:11:19;16.90;96.60
8856;DHT22;4464;50.882;4.730;2023-04-24T14:13:45;16.60;97.00
8856;DHT22;4464;50.882;4.730;2023-04-24T14:16:11;15.90;97.30
8856;DHT22;4464;50.882;4.730;2023-04-24T14:18:37;16.20;97.20
8856;DHT22;4464;50.882;4.730;2023-04-24T14:21:05;16.00;97.40
8856;DHT22;4464;50.882;4.730;2023-04-24T14:23:36;16.00;97.40
8856;DHT22;4464;50.882;4.730;2023-04-24T14:26:02;16.40;97.00
8856;DHT22;4464;50.882;4.730;2023-04-24T14:28:27;15.60;97.00
8856;DHT22;4464;50.882;4.730;2023-04-24T14:30:53;15.40;97.60
8856;DHT22;4464;50.882;4.730;2023-04-24T14:33:21;16.40;97.00
8856;DHT22;4464;50.882;4.730;2023-04-24T14:35:47;17.20;96.40
8856;DHT22;4464;50.882;4.730;2023-04-24T14:38:13;17.80;95.00
8856;DHT22;4464;50.882;4.730;2023-04-24T14:40:41;17.20;94.60
8856;DHT22;4464;50.882;4.730;2023-04-24T14:43:11;16.90;95.00
8856;DHT22;4464;50.882;4.730;2023-04-24T14:45:38;16.90;95.30
8856;DHT22;4464;50.882;4.730;2023-04-24T14:48:10;15.30;96.20
8856;DHT22;4464;50.882;4.730;2023-04-24T14:50:40;14.40;97.50
8856;DHT22;4464;50.882;4.730;2023-04-24T14:53:10;14.10;97.90
8856;DHT22;4464;50.882;4.730;2023-04-24T14:55:36;14.00;98.10
8856;DHT22;4464;50.882;4.730;2023-04-24T14:58:02;13.80;98.60
8856;DHT22;4464;50.882;4.730;2023-04-24T15:00:28;13.70;98.60
8856;DHT22;4464;50.882;4.730;2023-04-24T15:02:56;13.50;99.30
8856;DHT22;4464;50.882;4.730;2023-04-24T15:05:22;13.30;99.50
8856;DHT22;4464;50.882;4.730;2023-04-24T15:07:48;13.20;99.40
8856;DHT22;4464;50.882;4.730;2023-04-24T15:10:13;13.20;99.90
8856;DHT22;4464;50.882;4.730;2023-04-24T15:12:39;13.30;99.80
8856;DHT22;4464;50.882;4.730;2023-04-24T15:15:06;13.20;99.90
8856;DHT22;4464;50.882;4.730;2023-04-24T15:17:34;13.00;99.50
8856;DHT22;4464;50.882;4.730;2023-04-24T15:20:00;13.00;99.80
8856;DHT22;4464;50.882;4.730;2023-04-24T15:22:28;13.00;99.80
8856;DHT22;4464;50.882;4.730;2023-04-24T15:24:54;13.10;99.90
8856;DHT22;4464;50.882;4.730;2023-04-24T15:27:19;13.10;99.80
8856;DHT22;4464;50.882;4.730;2023-04-24T15:29:45;13.10;99.60
8856;DHT22;4464;50.882;4.730;2023-04-24T15:32:11;13.00;99.00
8856;DHT22;4464;50.882;4.730;2023-04-24T15:34:37;13.00;99.30
8856;DHT22;4464;50.882;4.730;2023-04-24T15:37:05;13.10;99.30
8856;DHT22;4464;50.882;4.730;2023-04-24T15:39:33;13.10;99.30
8856;DHT22;4464;50.882;4.730;2023-04-24T15:42:03;13.20;98.40
8856;DHT22;4464;50.882;4.730;2023-04-24T15:44:31;13.20;98.60
8856;DHT22;4464;50.882;4.730;2023-04-24T15:47:00;13.10;98.10
8856;DHT22;4464;50.882;4.730;2023-04-24T15:49:28;13.00;98.30
8856;DHT22;4464;50.882;4.730;2023-04-24T15:51:53;12.90;98.80
8856;DHT22;4464;50.882;4.730;2023-04-24T15:54:21;13.00;98.70
8856;DHT22;4464;50.882;4.730;2023-04-24T15:56:49;12.80;98.70
8856;DHT22;4464;50.882;4.730;2023-04-24T15:59:16;12.90;99.10
8856;DHT22;4464;50.882;4.730;2023-04-24T16:01:44;12.90;99.60
8856;DHT22;4464;50.882;4.730;2023-04-24T16:04:12;12.90;99.90
8856;DHT22;4464;50.882;4.730;2023-04-24T16:06:38;13.00;99.90
8856;DHT22;4464;50.882;4.730;2023-04-24T16:09:03;12.80;99.90
8856;DHT22;4464;50.882;4.730;2023-04-24T16:11:33;12.80;99.90
8856;DHT22;4464;50.882;4.730;2023-04-24T16:14:03;12.70;99.90
8856;DHT22;4464;50.882;4.730;2023-04-24T16:16:29;12.60;99.90
8856;DHT22;4464;50.882;4.730;2023-04-24T16:18:54;12.50;99.90
8856;DHT22;4464;50.882;4.730;2023-04-24T16:21:20;12.60;99.90
8856;DHT22;4464;50.882;4.730;2023-04-24T16:23:49;12.50;99.90
8856;DHT22;4464;50.882;4.730;2023-04-24T16:26:14;12.50;99.90